Time;durP1;ratioP1;P1;durP2;ratioP2;P2;SDS_P1;SDS_P2;PMS_P1;PMS_P2;Temp;Humidity;BMP_temperature;BMP_pressure;BME280_temperature;BME280_humidity;BME280_pressure;Samples;Min_cycle;Max_cycle;Signal;HPM_P1;HPM_P2
2022/08/22 00:02:06;;;;;;;10.10;3.22;;;15.10;99.90;;;;;;5071147;28;20076;-76
2022/08/22 00:04:40;;;;;;;;;;;15.10;99.90;;;;;;5071487;28;20040;-74
2022/08/22 00:07:43;;;;;;;9.18;2.85;;;15.10;99.90;;;;;;5070805;28;19970;-74
2022/08/22 00:10:34;;;;;;;7.88;3.08;;;15.10;99.90;;;;;;5071224;28;20499;-74
2022/08/22 00:13:13;;;;;;;8.25;3.50;;;15.00;99.90;;;;;;5052721;28;20608;-74
2022/08/22 00:16:06;;;;;;;10.35;3.05;;;15.20;99.90;;;;;;5070585;28;20040;-74
2022/08/22 00:18:42;;;;;;;10.00;3.60;;;15.00;99.90;;;;;;5070957;28;20395;-75
2022/08/22 00:21:14;;;;;;;7.85;3.20;;;15.00;99.90;;;;;;5052946;28;20110;-76
2022/08/22 00:24:17;;;;;;;8.60;3.80;;;15.00;99.90;;;;;;5070710;28;20060;-74
2022/08/22 00:26:58;;;;;;;12.75;3.50;;;15.10;99.90;;;;;;5070558;28;20131;-73
2022/08/22 00:29:41;;;;;;;8.90;3.50;;;15.00;99.90;;;;;;5070407;28;20556;-73
2022/08/22 00:32:22;;;;;;;8.13;3.30;;;15.00;99.90;;;;;;5070079;28;20060;-73
2022/08/22 00:35:28;;;;;;;8.18;3.58;;;15.00;99.90;;;;;;5070373;28;20041;-76
2022/08/22 00:38:25;;;;;;;9.77;4.00;;;15.10;99.90;;;;;;5069917;28;20044;-74
2022/08/22 00:41:06;;;;;;;10.07;4.07;;;15.00;99.90;;;;;;5069300;28;20503;-73
2022/08/22 00:44:06;;;;;;;10.00;3.90;;;14.90;99.90;;;;;;5070084;28;20045;-74
2022/08/22 00:46:40;;;;;;;10.60;4.22;;;14.90;99.90;;;;;;5070283;28;20047;-73
2022/08/22 00:49:51;;;;;;;13.05;4.50;;;15.00;99.90;;;;;;5069835;28;20514;-74
2022/08/22 00:52:25;;;;;;;12.20;4.22;;;15.00;99.90;;;;;;5070201;28;20045;-75
2022/08/22 00:54:53;;;;;;;9.75;4.05;;;14.90;99.90;;;;;;5070222;28;20049;-74
2022/08/22 00:57:40;;;;;;;10.63;4.38;;;15.00;99.90;;;;;;5069704;28;20044;-74
2022/08/22 01:00:12;;;;;;;9.80;3.80;;;15.00;99.90;;;;;;5069767;28;20503;-73
2022/08/22 01:03:06;;;;;;;9.57;4.15;;;15.00;99.90;;;;;;5069633;28;20056;-72
2022/08/22 01:05:46;;;;;;;9.50;4.13;;;15.00;99.90;;;;;;5069938;28;20048;-74
2022/08/22 01:08:37;;;;;;;8.68;4.15;;;15.00;99.90;;;;;;5069860;28;20068;-74
2022/08/22 01:11:44;;;;;;;10.25;4.30;;;15.00;99.90;;;;;;5070012;28;20048;-73
2022/08/22 01:14:10;;;;;;;9.65;4.72;;;14.90;99.90;;;;;;4975442;28;20100;-73
2022/08/22 01:16:59;;;;;;;14.88;4.82;;;14.80;99.90;;;;;;5007445;28;20053;-74
2022/08/22 01:19:36;;;;;;;14.02;4.65;;;14.80;99.90;;;;;;5006922;28;20126;-73
2022/08/22 01:22:23;;;;;;;9.40;4.40;;;14.80;99.90;;;;;;5007360;28;20057;-74
2022/08/22 01:25:30;;;;;;;10.27;4.40;;;14.80;99.90;;;;;;5007412;28;20493;-73
2022/08/22 01:28:23;;;;;;;12.40;4.78;;;14.80;99.90;;;;;;5006600;28;20065;-74
2022/08/22 01:30:55;;;;;;;10.05;4.70;;;14.80;99.90;;;;;;5007251;28;20100;-76
2022/08/22 01:33:50;;;;;;;12.18;4.78;;;14.80;99.90;;;;;;5007236;28;20120;-76
2022/08/22 01:36:42;;;;;;;12.45;4.55;;;15.00;99.90;;;;;;4948726;29;20134;-75
2022/08/22 01:39:19;;;;;;;15.32;5.28;;;14.70;99.90;;;;;;4949023;29;20047;-74
2022/08/22 01:42:09;;;;;;;11.30;4.43;;;14.60;99.90;;;;;;4948842;29;20519;-74
2022/08/22 01:44:56;;;;;;;8.85;4.30;;;14.60;99.90;;;;;;4948686;29;20499;-75
2022/08/22 01:48:06;;;;;;;10.43;4.28;;;14.60;99.90;;;;;;4952660;28;20157;-74
2022/08/22 01:50:38;;;;;;;10.18;4.53;;;14.60;99.90;;;;;;4948323;29;20059;-74
2022/08/22 01:53:10;;;;;;;9.00;4.28;;;14.50;99.90;;;;;;4948990;28;20055;-73
2022/08/22 01:56:21;;;;;;;10.60;4.53;;;14.60;99.90;;;;;;4949192;29;20207;-72
2022/08/22 01:59:02;;;;;;;8.68;4.32;;;14.60;99.90;;;;;;4911116;29;20526;-73
2022/08/22 02:01:28;;;;;;;9.40;4.57;;;14.60;99.90;;;;;;4909989;29;20052;-74
2022/08/22 02:04:12;;;;;;;13.18;5.07;;;14.60;99.90;;;;;;4895019;29;20056;-74
2022/08/22 02:06:46;;;;;;;8.65;4.35;;;14.50;99.90;;;;;;4910313;29;20218;-75
2022/08/22 02:09:48;;;;;;;7.53;4.43;;;14.50;99.90;;;;;;4910537;29;20143;-75
2022/08/22 02:12:23;;;;;;;9.60;4.32;;;14.40;99.90;;;;;;4902268;29;20148;-73
2022/08/22 02:14:57;;;;;;;13.75;5.50;;;14.40;99.90;;;;;;4940276;29;20055;-76
2022/08/22 02:17:31;;;;;;;11.88;4.80;;;14.30;99.90;;;;;;4948701;29;20075;-76
2022/08/22 02:20:16;;;;;;;10.48;4.60;;;14.30;99.90;;;;;;4929439;29;20122;-76
2022/08/22 02:22:52;;;;;;;13.00;4.90;;;14.30;99.90;;;;;;4929072;29;20059;-76
2022/08/22 02:25:24;;;;;;;10.65;5.82;;;14.30;99.90;;;;;;4879928;29;20057;-76
2022/08/22 02:27:57;;;;;;;12.55;5.10;;;14.20;99.90;;;;;;4873073;29;20064;-75
2022/08/22 02:30:43;;;;;;;10.38;4.72;;;14.20;99.90;;;;;;4872950;29;20049;-76
2022/08/22 02:33:32;;;;;;;8.52;4.93;;;14.20;99.90;;;;;;4873000;29;20444;-76
2022/08/22 02:36:08;;;;;;;7.88;4.75;;;14.20;99.90;;;;;;4923829;29;20047;-75
2022/08/22 02:38:59;;;;;;;14.68;5.70;;;14.10;99.90;;;;;;4951470;29;20528;-76
2022/08/22 02:41:46;;;;;;;15.55;5.90;;;14.10;99.90;;;;;;4951951;29;20051;-75
2022/08/22 02:44:53;;;;;;;12.82;5.75;;;14.10;99.90;;;;;;4951815;29;20059;-76
2022/08/22 02:47:49;;;;;;;9.38;5.50;;;13.90;99.90;;;;;;4895169;29;20065;-74
2022/08/22 02:50:41;;;;;;;7.72;4.53;;;13.90;99.90;;;;;;4981483;28;20062;-75
2022/08/22 02:53:20;;;;;;;6.13;3.65;;;13.90;99.90;;;;;;4990332;28;20046;-75
2022/08/22 02:56:17;;;;;;;7.97;4.55;;;13.90;99.90;;;;;;4990279;28;20046;-75
2022/08/22 02:59:08;;;;;;;7.22;4.50;;;13.80;99.90;;;;;;4990504;28;20052;-75
2022/08/22 03:01:39;;;;;;;8.13;4.57;;;13.70;99.90;;;;;;4989441;28;20077;-75
2022/08/22 03:04:25;;;;;;;5.55;3.80;;;13.70;99.90;;;;;;4990068;28;20456;-75
2022/08/22 03:07:24;;;;;;;8.18;3.90;;;13.70;99.90;;;;;;4990304;28;20077;-75
2022/08/22 03:10:14;;;;;;;6.95;3.85;;;13.60;99.90;;;;;;4989610;28;20070;-73
2022/08/22 03:13:01;;;;;;;5.47;3.15;;;13.60;99.90;;;;;;4989787;28;20439;-75
2022/08/22 03:15:53;;;;;;;7.85;4.15;;;13.60;99.90;;;;;;4989743;28;20057;-74
2022/08/22 03:18:20;;;;;;;7.90;4.47;;;13.60;99.90;;;;;;4990287;28;20058;-74
2022/08/22 03:21:10;;;;;;;7.25;3.70;;;13.70;99.90;;;;;;4990283;28;20120;-74
2022/08/22 03:23:45;;;;;;;5.20;3.60;;;13.90;99.90;;;;;;5040509;28;20143;-74
2022/08/22 03:26:13;;;;;;;;;;;13.50;99.90;;;;;;5054476;28;20067;-74
2022/08/22 03:28:48;;;;;;;6.60;2.90;;;13.50;99.90;;;;;;5071740;28;19960;-74
2022/08/22 03:31:18;;;;;;;6.72;2.05;;;13.40;99.90;;;;;;5071587;28;20044;-72
2022/08/22 03:34:05;;;;;;;5.95;2.78;;;13.40;99.90;;;;;;5071643;28;20056;-73
2022/08/22 03:36:32;;;;;;;6.00;2.97;;;13.30;99.90;;;;;;5071378;28;20115;-74
2022/08/22 03:39:16;;;;;;;7.53;4.03;;;13.30;99.90;;;;;;5070455;28;20559;-75
2022/08/22 03:41:48;;;;;;;7.43;3.50;;;13.30;99.90;;;;;;5070753;28;20376;-73
2022/08/22 03:44:45;;;;;;;6.03;3.63;;;13.20;99.90;;;;;;5071262;28;20059;-73
2022/08/22 03:48:01;;;;;;;6.28;2.58;;;13.20;99.90;;;;;;5070159;28;20167;-73
2022/08/22 03:50:43;;;;;;;4.60;2.53;;;13.20;99.90;;;;;;5008925;28;20561;-74
2022/08/22 03:53:14;;;;;;;5.75;2.72;;;13.10;99.90;;;;;;5008807;28;20084;-73
2022/08/22 03:56:25;;;;;;;7.80;3.20;;;13.10;99.90;;;;;;5002948;28;20065;-73
2022/08/22 03:59:00;;;;;;;4.70;2.97;;;13.10;99.90;;;;;;4950240;29;20056;-73
2022/08/22 04:02:00;;;;;;;6.00;3.72;;;13.10;99.90;;;;;;4950273;29;20066;-72
2022/08/22 04:04:46;;;;;;;5.63;3.35;;;13.10;99.90;;;;;;4950415;29;20109;-72
2022/08/22 04:07:31;;;;;;;8.98;3.55;;;13.10;99.90;;;;;;4949998;28;20047;-74
2022/08/22 04:10:35;;;;;;;12.68;3.75;;;13.00;99.90;;;;;;4931353;29;20106;-74
2022/08/22 04:13:07;;;;;;;6.18;3.55;;;13.00;99.90;;;;;;4920476;29;20150;-73
2022/08/22 04:16:01;;;;;;;8.27;3.45;;;13.00;99.90;;;;;;4911993;29;20048;-74
2022/08/22 04:18:38;;;;;;;9.07;4.60;;;12.90;99.90;;;;;;4912396;29;20149;-73
2022/08/22 04:21:04;;;;;;;8.00;4.22;;;12.80;99.90;;;;;;4941583;28;20058;-73
2022/08/22 04:24:07;;;;;;;8.20;4.10;;;13.00;99.90;;;;;;4968998;28;20133;-72
2022/08/22 04:26:49;;;;;;;6.60;4.05;;;12.80;99.90;;;;;;4969011;28;20055;-73
2022/08/22 04:29:23;;;;;;;6.63;3.97;;;12.80;99.90;;;;;;4969457;28;20091;-73
2022/08/22 04:32:07;;;;;;;7.28;4.40;;;12.70;99.90;;;;;;4969329;28;20067;-73
2022/08/22 04:34:54;;;;;;;7.10;4.60;;;12.60;99.90;;;;;;4971554;28;20573;-73
2022/08/22 04:37:32;;;;;;;9.60;4.75;;;12.50;99.90;;;;;;5007951;28;20067;-73
2022/08/22 04:40:08;;;;;;;9.50;4.68;;;12.60;99.90;;;;;;5008156;28;20461;-73
2022/08/22 04:42:51;;;;;;;9.00;4.10;;;12.50;99.90;;;;;;5007650;28;20049;-73
2022/08/22 04:45:24;;;;;;;11.18;4.38;;;12.50;99.90;;;;;;5070289;28;20083;-73
2022/08/22 04:48:14;;;;;;;7.07;4.00;;;12.50;99.90;;;;;;5070554;28;20048;-73
2022/08/22 04:50:56;;;;;;;9.88;3.72;;;12.40;99.90;;;;;;5051777;28;20135;-73
2022/08/22 04:53:58;;;;;;;5.22;3.58;;;12.40;99.90;;;;;;5069694;28;20090;-72
2022/08/22 04:56:42;;;;;;;5.60;3.58;;;12.40;99.90;;;;;;4968949;28;20054;-75
2022/08/22 04:59:15;;;;;;;6.60;4.07;;;12.50;99.90;;;;;;4968326;28;20624;-75
2022/08/22 05:01:48;;;;;;;8.27;3.63;;;12.50;99.90;;;;;;4968474;28;20125;-74
2022/08/22 05:04:27;;;;;;;7.72;4.05;;;12.50;99.90;;;;;;4968583;28;20051;-75
2022/08/22 05:07:04;;;;;;;11.95;4.70;;;12.50;99.90;;;;;;4968542;28;20527;-72
2022/08/22 05:09:34;;;;;;;6.07;4.05;;;12.50;99.90;;;;;;4949398;29;20536;-75
2022/08/22 05:12:07;;;;;;;6.50;4.07;;;12.50;99.90;;;;;;4949349;29;20449;-75
2022/08/22 05:14:43;;;;;;;9.77;4.03;;;12.50;99.90;;;;;;4949049;29;20560;-75
2022/08/22 05:17:16;;;;;;;8.50;3.85;;;12.50;99.90;;;;;;4966785;28;20145;-75
2022/08/22 05:19:49;;;;;;;6.85;3.88;;;12.50;99.90;;;;;;4968826;28;20043;-75
2022/08/22 05:22:20;;;;;;;10.27;5.00;;;12.50;99.90;;;;;;4968704;28;20046;-75
2022/08/22 05:24:50;;;;;;;8.15;5.03;;;12.50;99.90;;;;;;4968693;28;20126;-74
2022/08/22 05:27:27;;;;;;;9.57;5.00;;;12.50;99.90;;;;;;4968675;28;20061;-74
2022/08/22 05:30:22;;;;;;;10.80;4.60;;;12.50;99.90;;;;;;4991824;28;20053;-75
2022/08/22 05:33:24;;;;;;;6.40;4.20;;;12.60;99.90;;;;;;5049472;28;20133;-74
2022/08/22 05:35:57;;;;;;;13.25;4.50;;;13.00;99.90;;;;;;4968127;28;20125;-75
2022/08/22 05:38:29;;;;;;;13.48;5.05;;;12.90;99.90;;;;;;4973241;28;20137;-74
2022/08/22 05:41:03;;;;;;;11.80;4.88;;;12.70;99.90;;;;;;4968263;28;20632;-74
2022/08/22 05:43:33;;;;;;;8.02;5.10;;;12.80;99.90;;;;;;4969325;28;20114;-73
2022/08/22 05:46:00;;;;;;;7.90;4.57;;;12.80;99.90;;;;;;4974901;28;20051;-74
2022/08/22 05:48:56;;;;;;;8.07;4.75;;;13.00;99.90;;;;;;4987687;28;20054;-74
2022/08/22 05:51:35;;;;;;;6.68;5.00;;;13.10;99.90;;;;;;4976354;28;20059;-75
2022/08/22 05:54:27;;;;;;;10.55;6.47;;;13.20;99.90;;;;;;4968473;28;20054;-74
2022/08/22 05:57:07;;;;;;;12.07;5.60;;;13.60;99.90;;;;;;4949034;29;20498;-75
2022/08/22 05:59:37;;;;;;;9.48;5.65;;;13.50;99.90;;;;;;4948748;29;20059;-74
2022/08/22 06:02:18;;;;;;;13.95;5.65;;;13.50;99.90;;;;;;4948109;29;20047;-74
2022/08/22 06:04:53;;;;;;;11.25;5.15;;;13.60;99.90;;;;;;4948807;29;20059;-75
2022/08/22 06:07:30;;;;;;;12.75;5.93;;;13.80;99.90;;;;;;4948852;29;20055;-73
2022/08/22 06:10:14;;;;;;;12.57;5.78;;;13.90;99.90;;;;;;4930121;29;20056;-74
2022/08/22 06:12:49;;;;;;;9.75;5.90;;;14.00;99.90;;;;;;4961293;28;20066;-74
2022/08/22 06:15:21;;;;;;;12.77;6.45;;;14.10;99.90;;;;;;4971691;28;20054;-75
2022/08/22 06:18:03;;;;;;;9.23;6.10;;;14.30;99.90;;;;;;4971399;28;20089;-75
2022/08/22 06:20:42;;;;;;;9.48;6.22;;;14.40;99.90;;;;;;4976258;28;20058;-74
2022/08/22 06:23:15;;;;;;;13.48;6.97;;;14.50;99.90;;;;;;4991101;28;20046;-74
2022/08/22 06:25:45;;;;;;;13.02;6.80;;;14.70;99.90;;;;;;4990966;28;20077;-73
2022/08/22 06:28:19;;;;;;;14.05;7.70;;;14.80;99.90;;;;;;4988076;28;20055;-75
2022/08/22 06:30:46;;;;;;;16.98;8.20;;;15.00;99.90;;;;;;4987326;28;20077;-76
2022/08/22 06:33:17;;;;;;;15.02;8.13;;;15.00;99.90;;;;;;5005079;28;20128;-74
2022/08/22 06:39:09;;;;;;;13.73;7.05;;;15.40;99.90;;;;;;5033866;28;20061;-75
2022/08/22 06:41:46;;;;;;;14.98;7.28;;;15.50;99.90;;;;;;5052669;28;20045;-74
2022/08/22 06:44:16;;;;;;;12.40;6.75;;;15.60;99.90;;;;;;5052712;28;20048;-74
2022/08/22 06:46:44;;;;;;;14.90;6.53;;;15.70;99.90;;;;;;5052666;28;20087;-74
2022/08/22 06:49:12;;;;;;;11.82;7.00;;;15.90;99.90;;;;;;5054336;28;20115;-76
2022/08/22 06:51:38;;;;;;;15.85;6.18;;;16.00;99.90;;;;;;5072365;28;20048;-76
2022/08/22 06:54:11;;;;;;;13.75;6.57;;;16.10;99.90;;;;;;5072540;28;20123;-74
2022/08/22 06:56:43;;;;;;;13.20;5.65;;;16.20;99.90;;;;;;5072202;28;20048;-76
2022/08/22 06:59:15;;;;;;;14.60;5.78;;;16.30;99.90;;;;;;5072310;28;20044;-74
2022/08/22 07:02:11;;;;;;;16.73;5.55;;;16.40;99.90;;;;;;5073475;28;20040;-73
2022/08/22 07:04:38;;;;;;;15.05;5.22;;;16.60;99.90;;;;;;5052126;28;20049;-75
2022/08/22 07:07:05;;;;;;;11.32;5.20;;;16.70;99.90;;;;;;5060453;28;20055;-74
2022/08/22 07:09:34;;;;;;;11.13;5.53;;;16.70;99.90;;;;;;5054042;28;20517;-73
2022/08/22 07:12:09;;;;;;;11.35;4.82;;;16.90;99.90;;;;;;5072081;28;20754;-78
2022/08/22 07:14:45;;;;;;;12.15;4.60;;;17.00;99.90;;;;;;5071691;28;20090;-74
2022/08/22 07:17:25;;;;;;;11.70;4.60;;;17.10;99.90;;;;;;5071783;28;20048;-75
2022/08/22 07:19:56;;;;;;;16.20;4.75;;;17.10;99.90;;;;;;5071368;28;20052;-74
2022/08/22 07:22:25;;;;;;;10.00;4.63;;;17.20;99.90;;;;;;5051701;28;20049;-75
2022/08/22 07:24:55;;;;;;;13.70;4.32;;;17.30;99.90;;;;;;5052216;28;20047;-74
2022/08/22 07:27:48;;;;;;;14.23;4.63;;;17.40;99.90;;;;;;5051933;28;20049;-73
2022/08/22 07:30:17;;;;;;;16.65;4.90;;;17.50;99.90;;;;;;5051830;28;20041;-73
2022/08/22 07:33:02;;;;;;;12.75;4.18;;;17.60;99.90;;;;;;5051571;28;20049;-76
2022/08/22 07:35:34;;;;;;;19.05;4.53;;;17.70;99.90;;;;;;5069133;28;20487;-74
2022/08/22 07:38:25;;;;;;;14.48;4.63;;;17.80;99.90;;;;;;5071602;28;20073;-75
2022/08/22 07:41:00;;;;;;;14.65;3.45;;;17.80;99.90;;;;;;5071580;28;20055;-74
2022/08/22 07:43:35;;;;;;;11.57;3.35;;;18.00;99.90;;;;;;5071220;28;20486;-74
2022/08/22 07:46:07;;;;;;;42.17;6.22;;;18.10;99.90;;;;;;5071289;28;20491;-74
2022/08/22 07:48:39;;;;;;;20.00;4.53;;;18.20;99.90;;;;;;5071669;28;20048;-75
2022/08/22 07:51:14;;;;;;;14.38;3.72;;;18.30;99.90;;;;;;5070807;28;20049;-74
2022/08/22 07:53:46;;;;;;;12.98;3.47;;;18.30;99.90;;;;;;5071208;28;20464;-74
2022/08/22 07:56:20;;;;;;;16.98;2.80;;;18.40;99.90;;;;;;5071232;28;20059;-74
2022/08/22 07:58:52;;;;;;;12.27;2.80;;;18.60;99.90;;;;;;5071653;28;20150;-72
2022/08/22 08:01:20;;;;;;;11.07;2.70;;;18.60;99.90;;;;;;5071495;28;20040;-76
2022/08/22 08:04:07;;;;;;;17.00;2.83;;;18.70;99.90;;;;;;5072930;28;20101;-72
2022/08/22 08:06:33;;;;;;;11.73;2.70;;;18.80;99.90;;;;;;5072186;28;20044;-74
2022/08/22 08:09:01;;;;;;;14.57;2.92;;;18.90;99.90;;;;;;5091600;28;20059;-75
2022/08/22 08:11:32;;;;;;;14.07;2.95;;;19.00;99.90;;;;;;5091542;28;20044;-74
2022/08/22 08:14:03;;;;;;;8.55;2.40;;;19.00;99.90;;;;;;5091555;28;20051;-75
2022/08/22 08:16:41;;;;;;;13.52;2.65;;;19.10;99.90;;;;;;5084645;28;20040;-75
2022/08/22 08:19:10;;;;;;;11.70;2.72;;;19.30;99.90;;;;;;5062948;28;20036;-75
2022/08/22 08:21:40;;;;;;;14.20;2.72;;;19.40;99.90;;;;;;5070805;28;20131;-75
2022/08/22 08:24:10;;;;;;;10.80;2.50;;;19.50;99.90;;;;;;5070662;28;20136;-75
2022/08/22 08:28:32;;;;;;;12.73;2.35;;;19.40;99.90;;;;;;5070781;28;20791;-75
2022/08/22 08:29:31;;;;;;;12.70;2.58;;;19.60;99.90;;;;;;5070748;28;20052;-75
2022/08/22 08:31:59;;;;;;;12.27;2.65;;;20.00;99.90;;;;;;5069959;28;20048;-76
2022/08/22 08:34:26;;;;;;;12.50;2.70;;;20.10;99.90;;;;;;5069812;28;20048;-74
2022/08/22 08:37:19;;;;;;;9.68;2.40;;;20.20;99.90;;;;;;5070566;28;20041;-75
2022/08/22 08:39:49;;;;;;;10.13;2.40;;;20.40;99.90;;;;;;5007824;28;20069;-74
2022/08/22 08:43:26;;;;;;;10.25;2.95;;;20.30;99.90;;;;;;5008164;28;20489;-76
2022/08/22 08:45:46;;;;;;;10.27;2.53;;;20.50;99.90;;;;;;5007328;28;20046;-75
2022/08/22 08:48:32;;;;;;;13.02;2.38;;;20.50;99.90;;;;;;5008148;28;20053;-76
2022/08/22 08:51:21;;;;;;;15.85;3.05;;;20.60;99.90;;;;;;5007853;28;20050;-75
2022/08/22 08:54:11;;;;;;;23.90;2.75;;;20.90;99.90;;;;;;4949310;29;20674;-76
2022/08/22 08:56:54;;;;;;;22.17;3.50;;;21.20;99.90;;;;;;4949735;29;20387;-74
2022/08/22 08:59:36;;;;;;;14.55;3.08;;;21.60;99.90;;;;;;4949745;29;20054;-76
2022/08/22 09:02:32;;;;;;;13.07;3.08;;;21.80;99.90;;;;;;4941683;29;20051;-75
2022/08/22 09:05:16;;;;;;;17.83;3.05;;;22.10;99.90;;;;;;4941663;29;20110;-77
2022/08/22 09:07:56;;;;;;;13.07;3.33;;;22.40;99.90;;;;;;4950023;29;20047;-78
2022/08/22 09:10:58;;;;;;;10.73;2.40;;;22.60;99.90;;;;;;4948863;29;20499;-74
2022/08/22 09:13:47;;;;;;;11.65;2.58;;;22.90;99.90;;;;;;4949602;29;20450;-75
2022/08/22 09:16:35;;;;;;;18.67;2.88;;;23.10;99.90;;;;;;4959235;28;20062;-77
2022/08/22 09:19:09;;;;;;;8.48;2.08;;;23.30;99.90;;;;;;4988469;28;20662;-77
2022/08/22 09:21:43;;;;;;;10.25;2.72;;;23.20;99.90;;;;;;4988465;28;20038;-76
2022/08/22 09:24:36;;;;;;;9.02;2.00;;;23.30;99.90;;;;;;4988172;28;20050;-77
2022/08/22 09:27:12;;;;;;;9.07;2.30;;;23.20;99.90;;;;;;4987849;28;20058;-78
2022/08/22 09:29:59;;;;;;;14.50;2.47;;;23.30;99.90;;;;;;4987846;28;20045;-79
2022/08/22 09:32:44;;;;;;;14.23;3.13;;;23.50;99.90;;;;;;5049702;28;20045;-76
2022/08/22 09:35:30;;;;;;;9.18;2.15;;;23.70;99.90;;;;;;5061848;28;20041;-75
2022/08/22 09:38:30;;;;;;;11.38;2.42;;;23.90;99.90;;;;;;5068952;28;20048;-75
2022/08/22 09:41:16;;;;;;;13.20;2.80;;;24.00;99.90;;;;;;5069132;28;20499;-76
2022/08/22 09:43:59;;;;;;;10.18;1.95;;;24.30;99.90;;;;;;5069707;28;20049;-75
2022/08/22 09:46:30;;;;;;;12.85;2.38;;;24.50;99.90;;;;;;5072300;28;20057;-74
2022/08/22 09:49:32;;;;;;;8.10;1.80;;;24.80;99.90;;;;;;5073715;28;20131;-74
2022/08/22 09:52:27;;;;;;;13.02;2.22;;;24.90;99.90;;;;;;5073947;28;20395;-73
2022/08/22 09:55:05;;;;;;;7.53;1.48;;;25.00;99.90;;;;;;5073789;28;20048;-76
2022/08/22 09:57:49;;;;;;;11.70;2.10;;;25.10;99.90;;;;;;5073077;28;20048;-79
2022/08/22 10:00:23;;;;;;;10.63;1.90;;;25.20;99.90;;;;;;5073751;28;20068;-76
2022/08/22 10:02:54;;;;;;;12.68;2.00;;;25.30;99.90;;;;;;5071935;28;20098;-74
2022/08/22 10:05:28;;;;;;;6.40;1.73;;;25.40;99.90;;;;;;5073623;28;20068;-77
2022/08/22 10:08:09;;;;;;;7.55;1.55;;;25.70;99.90;;;;;;5073399;28;20049;-79
2022/08/22 10:10:53;;;;;;;6.55;1.42;;;25.60;99.90;;;;;;5055136;28;20063;-74
2022/08/22 10:13:47;;;;;;;9.17;1.70;;;26.00;99.90;;;;;;5038408;28;20079;-78
2022/08/22 10:16:37;;;;;;;10.88;1.83;;;26.10;99.90;;;;;;5053487;28;20394;-76
2022/08/22 10:19:25;;;;;;;5.72;1.60;;;26.20;99.90;;;;;;5072264;28;20127;-76
2022/08/22 10:22:21;;;;;;;11.35;2.13;;;26.40;99.90;;;;;;5093554;28;20048;-73
2022/08/22 10:25:23;;;;;;;8.15;1.92;;;26.60;99.90;;;;;;5074981;28;20056;-74
2022/08/22 10:28:31;;;;;;;8.82;2.00;;;26.80;99.90;;;;;;5092885;28;20490;-77
2022/08/22 10:31:37;;;;;;;10.85;3.08;;;27.00;99.90;;;;;;5078122;28;20045;-76
2022/08/22 10:34:19;;;;;;;7.13;1.83;;;27.10;99.90;;;;;;5010744;28;20140;-75
2022/08/22 10:36:57;;;;;;;15.48;2.80;;;26.80;99.90;;;;;;5010686;28;20519;-76
2022/08/22 10:39:29;;;;;;;12.98;2.30;;;26.50;99.90;;;;;;5010865;28;20501;-78
2022/08/22 10:42:19;;;;;;;9.98;2.08;;;26.90;99.90;;;;;;5010612;28;20085;-79
2022/08/22 10:45:02;;;;;;;16.63;2.13;;;27.00;99.90;;;;;;5010423;28;20086;-77
2022/08/22 10:47:38;;;;;;;14.90;2.55;;;27.00;99.00;;;;;;5010600;28;20053;-76
2022/08/22 10:50:25;;;;;;;14.20;2.00;;;26.60;99.00;;;;;;5010371;28;20773;-78
2022/08/22 10:53:28;;;;;;;15.30;1.98;;;26.90;98.40;;;;;;5010518;28;20054;-77
2022/08/22 10:55:47;;;;;;;11.43;2.10;;;27.20;99.90;;;;;;4993456;28;20061;-76
2022/08/22 10:58:43;;;;;;;7.00;1.70;;;27.40;99.80;;;;;;5010054;28;20050;-75
2022/08/22 11:01:13;;;;;;;11.80;2.60;;;27.60;99.30;;;;;;4992907;28;20501;-76
2022/08/22 11:03:42;;;;;;;13.07;2.55;;;27.70;98.80;;;;;;4990577;28;20141;-78
2022/08/22 11:06:28;;;;;;;15.13;2.72;;;27.70;98.90;;;;;;4974246;28;20046;-74
2022/08/22 11:09:12;;;;;;;10.50;2.17;;;27.60;97.10;;;;;;4990428;28;20062;-75
2022/08/22 11:11:47;;;;;;;8.90;1.73;;;27.60;98.40;;;;;;5042637;28;20057;-74
2022/08/22 11:14:26;;;;;;;;;;;27.60;97.90;;;;;;5052695;28;20057;-75
2022/08/22 11:17:04;;;;;;;8.48;2.08;;;27.40;97.80;;;;;;5051831;28;20338;-74
2022/08/22 11:19:46;;;;;;;7.90;2.20;;;27.60;96.20;;;;;;5052023;28;20049;-78
2022/08/22 11:22:27;;;;;;;10.13;2.08;;;27.90;97.00;;;;;;5051851;28;20590;-78
2022/08/22 11:25:14;;;;;;;6.38;1.42;;;28.20;96.70;;;;;;5034137;28;20053;-77
2022/08/22 11:28:00;;;;;;;12.27;2.03;;;28.40;96.20;;;;;;5034539;28;20045;-77
2022/08/22 11:30:35;;;;;;;7.93;1.70;;;28.50;95.40;;;;;;5051657;28;20060;-76
2022/08/22 11:33:23;;;;;;;7.43;2.20;;;28.60;95.60;;;;;;5039364;28;20056;-75
2022/08/22 11:36:18;;;;;;;10.52;2.42;;;28.60;94.20;;;;;;5063737;28;20051;-75
2022/08/22 11:38:52;;;;;;;5.05;1.45;;;28.60;94.40;;;;;;5086004;28;20269;-74
2022/08/22 11:41:32;;;;;;;26.08;3.22;;;28.60;95.60;;;;;;5071396;28;20513;-77
2022/08/22 11:44:22;;;;;;;7.60;1.63;;;28.50;92.50;;;;;;5071730;28;20533;-75
2022/08/22 11:46:53;;;;;;;9.25;1.95;;;28.30;92.40;;;;;;5070546;28;20044;-77
2022/08/22 11:50:01;;;;;;;9.82;1.70;;;28.50;94.30;;;;;;5071226;28;20053;-76
2022/08/22 11:52:39;;;;;;;6.18;1.83;;;28.60;92.40;;;;;;5070721;28;20036;-77
2022/08/22 11:55:10;;;;;;;6.43;1.42;;;28.60;94.10;;;;;;5071447;28;20048;-76
2022/08/22 11:57:40;;;;;;;7.88;1.67;;;28.70;93.40;;;;;;5071289;28;20139;-74
2022/08/22 12:00:19;;;;;;;6.82;1.73;;;28.70;93.90;;;;;;5071659;28;20044;-74
2022/08/22 12:03:04;;;;;;;8.43;1.60;;;28.50;92.90;;;;;;5052949;28;20595;-74
2022/08/22 12:05:34;;;;;;;6.10;1.42;;;28.70;93.50;;;;;;5071081;28;20084;-76
2022/08/22 12:07:59;;;;;;;6.00;1.50;;;28.80;94.40;;;;;;5062351;28;20037;-74
2022/08/22 12:10:32;;;;;;;6.50;1.70;;;28.90;93.50;;;;;;5051181;28;20053;-73
2022/08/22 12:13:31;;;;;;;6.97;1.55;;;28.90;93.30;;;;;;5051349;28;20056;-75
2022/08/22 12:16:39;;;;;;;10.45;2.10;;;29.00;93.20;;;;;;5033196;28;20053;-76
2022/08/22 12:19:25;;;;;;;8.38;1.88;;;29.10;92.70;;;;;;4988612;28;20174;-77
2022/08/22 12:22:02;;;;;;;9.32;1.95;;;29.40;93.00;;;;;;4989134;28;20836;-80
2022/08/22 12:24:45;;;;;;;8.18;1.92;;;29.50;92.90;;;;;;4988887;28;20062;-80
2022/08/22 12:27:24;;;;;;;8.77;1.45;;;29.00;92.60;;;;;;4988847;28;20052;-78
2022/08/22 12:30:08;;;;;;;7.40;1.70;;;29.10;93.00;;;;;;4988836;28;20534;-76
2022/08/22 12:33:03;;;;;;;6.55;1.63;;;29.20;93.10;;;;;;4988813;28;20420;-82
2022/08/22 12:35:50;;;;;;;;;;;29.50;93.60;;;;;;4993197;28;20117;-80
2022/08/22 12:38:52;;;;;;;7.68;1.88;;;29.50;92.10;;;;;;5008367;28;19933;-75
2022/08/22 12:41:34;;;;;;;7.60;2.15;;;29.40;92.20;;;;;;5008268;28;20161;-80
2022/08/22 12:44:28;;;;;;;9.82;2.00;;;29.50;92.10;;;;;;5008057;28;20054;-78
2022/08/22 12:47:05;;;;;;;7.53;1.48;;;29.50;93.20;;;;;;5008049;28;20054;-75
2022/08/22 12:49:57;;;;;;;8.30;1.50;;;29.50;92.80;;;;;;5007501;28;20064;-78
2022/08/22 12:52:41;;;;;;;6.45;1.60;;;29.40;91.40;;;;;;5008187;28;20116;-73
2022/08/22 12:55:31;;;;;;;6.93;1.50;;;29.40;91.70;;;;;;5016979;28;20057;-74
2022/08/22 12:58:11;;;;;;;5.32;1.70;;;29.60;91.90;;;;;;5050209;28;20053;-76
2022/08/22 13:00:42;;;;;;;10.23;1.63;;;29.50;92.00;;;;;;5049805;28;20048;-76
2022/08/22 13:03:28;;;;;;;5.60;1.52;;;29.70;92.00;;;;;;5050126;28;20044;-74
2022/08/22 13:05:56;;;;;;;8.68;1.45;;;29.60;91.00;;;;;;5049894;28;20092;-74
2022/08/22 13:08:31;;;;;;;6.32;2.05;;;29.00;91.50;;;;;;5050039;28;20119;-72
2022/08/22 13:11:05;;;;;;;7.57;1.55;;;28.70;91.10;;;;;;5049957;28;20059;-74
2022/08/22 13:13:33;;;;;;;;;;;28.70;91.70;;;;;;5050266;28;20033;-74
2022/08/22 13:16:04;;;;;;;9.23;1.75;;;28.90;91.60;;;;;;5049988;28;19921;-74
2022/08/22 13:18:44;;;;;;;9.90;2.10;;;28.80;91.70;;;;;;5050252;28;20037;-75
2022/08/22 13:21:14;;;;;;;8.93;1.95;;;29.00;92.10;;;;;;5049643;28;20056;-76
2022/08/22 13:23:47;;;;;;;6.75;1.55;;;29.10;92.10;;;;;;5050136;28;20045;-76
2022/08/22 13:26:26;;;;;;;7.80;1.70;;;29.40;92.20;;;;;;5049945;28;20056;-73
2022/08/22 13:29:05;;;;;;;6.93;1.63;;;29.30;90.80;;;;;;5049684;28;20045;-74
2022/08/22 13:31:36;;;;;;;8.38;1.90;;;29.60;91.00;;;;;;5049525;28;20040;-77
2022/08/22 13:34:05;;;;;;;7.03;1.40;;;29.50;90.80;;;;;;5049398;28;20053;-73
2022/08/22 13:36:39;;;;;;;6.45;1.30;;;29.50;91.10;;;;;;5049111;28;20052;-75
2022/08/22 13:39:24;;;;;;;4.75;1.52;;;29.50;90.50;;;;;;5049517;28;20049;-77
2022/08/22 13:41:54;;;;;;;8.27;1.88;;;29.50;90.50;;;;;;5049443;28;20076;-75
2022/08/22 13:44:21;;;;;;;5.68;1.40;;;29.40;90.10;;;;;;5031629;28;20056;-75
2022/08/22 13:46:49;;;;;;;8.98;1.60;;;29.40;90.70;;;;;;5031457;28;20223;-75
2022/08/22 13:49:32;;;;;;;7.40;1.48;;;29.10;90.30;;;;;;5049415;28;20053;-74
2022/08/22 13:51:58;;;;;;;5.53;1.50;;;29.00;89.00;;;;;;5049250;28;20060;-75
2022/08/22 13:54:45;;;;;;;6.15;1.33;;;29.10;90.40;;;;;;5031558;28;20049;-75
2022/08/22 13:57:27;;;;;;;7.55;1.67;;;29.10;88.70;;;;;;5049293;28;20400;-75
2022/08/22 14:00:16;;;;;;;6.68;1.35;;;29.00;89.10;;;;;;5047859;28;20053;-78